LCPH/PFO METAR and TAF weather

Enter ICAO airport designator
Station Type Date Time Source
LCPH METAR 2020/03/29 16:00 UTC NOAA

LCPH 291600Z 27017KT 9999 SCT018 FEW020TCU SCT040 16/11 Q1010


Station Type Date Time Source
LCPH Decoded METAR 2020/03/29 16:00 UTC NOAA

Paphos Airport, Cyprus (LCPH) 34-43N 032-29E 8M
Mar 29, 2020 - 12:00 PM EDT / 2020.03.29 1600 UTC
Wind: from the W (270 degrees) at 20 MPH (17 KT):0
Visibility: greater than 7 mile(s):0
Sky conditions: partly cloudy
Weather: Towering cumulus clouds observed
Temperature: 60 F (16 C)
Dew Point: 51 F (11 C)
Relative Humidity: 72%
Pressure (altimeter): 29.83 in. Hg (1010 hPa)
ob: LCPH 291600Z 27017KT 9999 SCT018 FEW020TCU SCT040 16/11 Q1010
cycle: 16

Station Type Date Time Source
LCPH TAF 2020/03/29 12:33 UTC NOAA

TAF LCPH 291130Z 2912/3012 27016KT 9999 BKN030
BECMG 2921/2924 33011KT
BECMG 3010/3012 14010KT

Example: see airport list